< < Back
Terminal Aerodrome Forecast


Current Version              Previous Versions:   1  2  3  4  5  6  7  8  9  

Terminal Aerodrome Forecast

089
FTUS42 KTAE 201700
TAFVLD
TAF
KVLD 201721Z 2018/2118 16006KT P6SM SCT040 SCT250
     FM210000 00000KT P6SM FEW250
      TEMPO 2109/2113 4SM BR=



Latest METAR

016
SAUS70 KWBC 210700 RRG
MTRVLD
METAR KVLD 210653Z AUTO 00000KT 10SM CLR 15/13 A2998 RMK AO2 SLP157
T01500128


USA.gov is the U.S. government's official web portal to all federal, state and local government web resources and services.